sensor_id;sensor_type;location;lat;lon;timestamp;pressure;altitude;pressure_sealevel;temperature;humidity
21956;BME280;11142;49.930;8.606;2023-03-04T00:02:17;100841.97;;;-0.34;100.00
21956;BME280;11142;49.930;8.606;2023-03-04T00:04:45;100846.13;;;-0.21;100.00
21956;BME280;11142;49.930;8.606;2023-03-04T00:07:13;100846.91;;;-0.11;100.00
21956;BME280;11142;49.930;8.606;2023-03-04T00:09:43;100852.75;;;-0.02;100.00
21956;BME280;11142;49.930;8.606;2023-03-04T00:12:10;100852.00;;;-0.10;100.00
21956;BME280;11142;49.930;8.606;2023-03-04T00:14:38;100857.13;;;-0.19;100.00
21956;BME280;11142;49.930;8.606;2023-03-04T00:17:07;100856.38;;;-0.30;100.00
21956;BME280;11142;49.930;8.606;2023-03-04T00:19:37;100855.56;;;-0.32;100.00
21956;BME280;11142;49.930;8.606;2023-03-04T00:22:07;100858.09;;;-0.30;100.00
21956;BME280;11142;49.930;8.606;2023-03-04T00:24:34;100857.28;;;-0.37;100.00
21956;BME280;11142;49.930;8.606;2023-03-04T00:27:02;100859.91;;;-0.44;100.00
21956;BME280;11142;49.930;8.606;2023-03-04T00:29:30;100860.75;;;-0.50;100.00
21956;BME280;11142;49.930;8.606;2023-03-04T00:31:58;100861.66;;;-0.59;100.00
21956;BME280;11142;49.930;8.606;2023-03-04T00:34:26;100854.88;;;-0.58;100.00
21956;BME280;11142;49.930;8.606;2023-03-04T00:37:00;100859.13;;;-0.59;100.00
21956;BME280;11142;49.930;8.606;2023-03-04T00:39:29;100859.16;;;-0.69;100.00
21956;BME280;11142;49.930;8.606;2023-03-04T00:41:57;100855.72;;;-0.59;100.00
21956;BME280;11142;49.930;8.606;2023-03-04T00:44:27;100857.41;;;-0.55;100.00
21956;BME280;11142;49.930;8.606;2023-03-04T00:46:55;100854.88;;;-0.63;100.00
21956;BME280;11142;49.930;8.606;2023-03-04T00:49:23;100856.56;;;-0.56;100.00
21956;BME280;11142;49.930;8.606;2023-03-04T00:51:51;100860.88;;;-0.67;100.00
21956;BME280;11142;49.930;8.606;2023-03-04T00:54:20;100864.38;;;-0.87;100.00
21956;BME280;11142;49.930;8.606;2023-03-04T00:56:48;100857.59;;;-0.97;100.00
21956;BME280;11142;49.930;8.606;2023-03-04T00:59:16;100852.56;;;-1.07;100.00
21956;BME280;11142;49.930;8.606;2023-03-04T01:01:44;100845.81;;;-1.18;100.00
21956;BME280;11142;49.930;8.606;2023-03-04T01:04:12;100839.03;;;-1.24;100.00
21956;BME280;11142;49.930;8.606;2023-03-04T01:06:40;100840.63;;;-1.01;100.00
21956;BME280;11142;49.930;8.606;2023-03-04T01:09:08;100849.03;;;-0.77;100.00
21956;BME280;11142;49.930;8.606;2023-03-04T01:11:37;100840.56;;;-0.85;100.00
21956;BME280;11142;49.930;8.606;2023-03-04T01:14:04;100838.06;;;-0.89;100.00
21956;BME280;11142;49.930;8.606;2023-03-04T01:16:32;100838.84;;;-0.78;100.00
21956;BME280;11142;49.930;8.606;2023-03-04T01:19:00;100835.41;;;-0.73;100.00
21956;BME280;11142;49.930;8.606;2023-03-04T01:21:28;100835.38;;;-0.70;100.00
21956;BME280;11142;49.930;8.606;2023-03-04T01:23:56;100839.66;;;-0.70;100.00
21956;BME280;11142;49.930;8.606;2023-03-04T01:26:24;100834.53;;;-0.67;100.00
21956;BME280;11142;49.930;8.606;2023-03-04T01:28:54;100829.47;;;-0.72;100.00
21956;BME280;11142;49.930;8.606;2023-03-04T01:31:22;100823.41;;;-0.51;100.00
21956;BME280;11142;49.930;8.606;2023-03-04T01:33:50;100828.50;;;-0.51;100.00
21956;BME280;11142;49.930;8.606;2023-03-04T01:36:18;100820.03;;;-0.58;100.00
21956;BME280;11142;49.930;8.606;2023-03-04T01:38:46;100826.94;;;-0.73;100.00
21956;BME280;11142;49.930;8.606;2023-03-04T01:41:22;100820.97;;;-0.71;100.00
21956;BME280;11142;49.930;8.606;2023-03-04T01:43:50;100821.81;;;-0.70;100.00
21956;BME280;11142;49.930;8.606;2023-03-04T01:46:19;100823.53;;;-0.74;100.00
21956;BME280;11142;49.930;8.606;2023-03-04T01:48:47;100810.00;;;-0.85;100.00
21956;BME280;11142;49.930;8.606;2023-03-04T01:51:16;100821.00;;;-0.77;100.00
21956;BME280;11142;49.930;8.606;2023-03-04T01:53:45;100811.72;;;-0.91;100.00
21956;BME280;11142;49.930;8.606;2023-03-04T01:56:14;100810.09;;;-1.00;100.00
21956;BME280;11142;49.930;8.606;2023-03-04T01:58:43;100809.31;;;-1.11;100.00
21956;BME280;11142;49.930;8.606;2023-03-04T02:01:11;100805.03;;;-1.09;100.00
21956;BME280;11142;49.930;8.606;2023-03-04T02:03:41;100806.78;;;-1.19;100.00
21956;BME280;11142;49.930;8.606;2023-03-04T02:06:09;100800.91;;;-1.34;100.00
21956;BME280;11142;49.930;8.606;2023-03-04T02:08:36;100798.38;;;-1.39;100.00
21956;BME280;11142;49.930;8.606;2023-03-04T02:11:04;100793.28;;;-1.42;100.00
21956;BME280;11142;49.930;8.606;2023-03-04T02:13:32;100789.91;;;-1.44;100.00
21956;BME280;11142;49.930;8.606;2023-03-04T02:16:01;100795.84;;;-1.43;100.00
21956;BME280;11142;49.930;8.606;2023-03-04T02:18:29;100784.81;;;-1.38;100.00
21956;BME280;11142;49.930;8.606;2023-03-04T02:21:00;100789.88;;;-1.33;100.00
21956;BME280;11142;49.930;8.606;2023-03-04T02:23:32;100791.53;;;-1.26;100.00
21956;BME280;11142;49.930;8.606;2023-03-04T02:26:09;100786.41;;;-1.19;100.00
21956;BME280;11142;49.930;8.606;2023-03-04T02:28:38;100782.91;;;-0.96;100.00
21956;BME280;11142;49.930;8.606;2023-03-04T02:31:07;100778.41;;;-0.60;100.00
21956;BME280;11142;49.930;8.606;2023-03-04T02:33:37;100773.94;;;-0.26;100.00
21956;BME280;11142;49.930;8.606;2023-03-04T02:36:05;100778.84;;;-0.08;100.00
21956;BME280;11142;49.930;8.606;2023-03-04T02:38:33;100774.31;;;0.20;100.00
21956;BME280;11142;49.930;8.606;2023-03-04T02:41:01;100774.03;;;0.47;100.00
21956;BME280;11142;49.930;8.606;2023-03-04T02:43:31;100777.09;;;0.75;100.00
21956;BME280;11142;49.930;8.606;2023-03-04T02:45:59;100770.00;;;0.97;100.00
21956;BME280;11142;49.930;8.606;2023-03-04T02:48:27;100772.50;;;1.01;100.00
21956;BME280;11142;49.930;8.606;2023-03-04T02:50:54;100767.41;;;1.01;100.00
21956;BME280;11142;49.930;8.606;2023-03-04T02:53:22;100771.50;;;1.13;100.00
21956;BME280;11142;49.930;8.606;2023-03-04T02:55:52;100766.16;;;1.28;100.00
21956;BME280;11142;49.930;8.606;2023-03-04T02:58:22;100776.28;;;1.34;100.00
21956;BME280;11142;49.930;8.606;2023-03-04T03:00:52;100776.13;;;1.43;100.00
21956;BME280;11142;49.930;8.606;2023-03-04T03:03:20;100771.13;;;1.37;100.00
21956;BME280;11142;49.930;8.606;2023-03-04T03:05:48;100772.78;;;1.41;100.00
21956;BME280;11142;49.930;8.606;2023-03-04T03:08:17;100774.75;;;1.21;100.00
21956;BME280;11142;49.930;8.606;2023-03-04T03:10:45;100766.94;;;1.32;100.00
21956;BME280;11142;49.930;8.606;2023-03-04T03:13:13;100769.56;;;1.29;100.00
21956;BME280;11142;49.930;8.606;2023-03-04T03:15:41;100774.56;;;1.33;100.00
21956;BME280;11142;49.930;8.606;2023-03-04T03:18:12;100777.41;;;1.17;100.00
21956;BME280;11142;49.930;8.606;2023-03-04T03:20:40;100771.72;;;1.54;100.00
21956;BME280;11142;49.930;8.606;2023-03-04T03:23:08;100775.50;;;1.83;100.00
21956;BME280;11142;49.930;8.606;2023-03-04T03:25:36;100773.59;;;1.95;100.00
21956;BME280;11142;49.930;8.606;2023-03-04T03:28:04;100768.34;;;2.03;100.00
21956;BME280;11142;49.930;8.606;2023-03-04T03:30:33;100766.78;;;1.94;100.00
21956;BME280;11142;49.930;8.606;2023-03-04T03:33:05;100766.94;;;1.85;100.00
21956;BME280;11142;49.930;8.606;2023-03-04T03:35:36;100762.69;;;1.84;100.00
21956;BME280;11142;49.930;8.606;2023-03-04T03:38:04;100765.34;;;1.78;100.00
21956;BME280;11142;49.930;8.606;2023-03-04T03:40:32;100770.56;;;1.74;100.00
21956;BME280;11142;49.930;8.606;2023-03-04T03:43:00;100768.25;;;1.57;100.00
21956;BME280;11142;49.930;8.606;2023-03-04T03:45:28;100764.03;;;1.54;100.00
21956;BME280;11142;49.930;8.606;2023-03-04T03:47:56;100768.97;;;1.08;100.00
21956;BME280;11142;49.930;8.606;2023-03-04T03:50:24;100762.75;;;1.28;100.00
21956;BME280;11142;49.930;8.606;2023-03-04T03:52:56;100758.22;;;1.45;100.00
21956;BME280;11142;49.930;8.606;2023-03-04T03:55:24;100758.19;;;1.48;100.00
21956;BME280;11142;49.930;8.606;2023-03-04T03:57:52;100767.50;;;1.50;100.00
21956;BME280;11142;49.930;8.606;2023-03-04T04:00:21;100762.19;;;1.64;100.00
21956;BME280;11142;49.930;8.606;2023-03-04T04:02:49;100764.66;;;1.69;100.00
21956;BME280;11142;49.930;8.606;2023-03-04T04:05:17;100771.22;;;1.31;100.00
21956;BME280;11142;49.930;8.606;2023-03-04T04:07:45;100766.19;;;1.25;100.00
21956;BME280;11142;49.930;8.606;2023-03-04T04:10:15;100762.44;;;1.49;100.00
21956;BME280;11142;49.930;8.606;2023-03-04T04:12:43;100764.31;;;1.88;100.00
21956;BME280;11142;49.930;8.606;2023-03-04T04:15:10;100759.72;;;2.07;100.00
21956;BME280;11142;49.930;8.606;2023-03-04T04:17:38;100765.34;;;2.26;100.00
21956;BME280;11142;49.930;8.606;2023-03-04T04:20:07;100766.66;;;2.46;100.00
21956;BME280;11142;49.930;8.606;2023-03-04T04:22:37;100772.06;;;2.76;100.00
21956;BME280;11142;49.930;8.606;2023-03-04T04:25:05;100769.44;;;2.77;100.00
21956;BME280;11142;49.930;8.606;2023-03-04T04:27:35;100759.41;;;2.68;100.00
21956;BME280;11142;49.930;8.606;2023-03-04T04:30:04;100751.91;;;2.57;100.00
21956;BME280;11142;49.930;8.606;2023-03-04T04:32:32;100750.38;;;2.50;100.00
21956;BME280;11142;49.930;8.606;2023-03-04T04:35:00;100760.97;;;2.32;100.00
21956;BME280;11142;49.930;8.606;2023-03-04T04:37:30;100757.31;;;1.99;100.00
21956;BME280;11142;49.930;8.606;2023-03-04T04:39:59;100758.06;;;2.06;100.00
21956;BME280;11142;49.930;8.606;2023-03-04T04:42:27;100758.75;;;2.12;100.00
21956;BME280;11142;49.930;8.606;2023-03-04T04:44:56;100761.94;;;1.79;100.00
21956;BME280;11142;49.930;8.606;2023-03-04T04:47:24;100758.97;;;2.02;100.00
21956;BME280;11142;49.930;8.606;2023-03-04T04:49:52;100755.88;;;2.31;100.00
21956;BME280;11142;49.930;8.606;2023-03-04T04:52:20;100766.69;;;2.45;100.00
21956;BME280;11142;49.930;8.606;2023-03-04T04:54:48;100760.38;;;2.62;100.00
21956;BME280;11142;49.930;8.606;2023-03-04T04:57:16;100754.72;;;2.87;100.00
21956;BME280;11142;49.930;8.606;2023-03-04T04:59:44;100753.63;;;2.98;100.00
21956;BME280;11142;49.930;8.606;2023-03-04T05:02:14;100751.69;;;3.08;100.00
21956;BME280;11142;49.930;8.606;2023-03-04T05:04:44;100752.59;;;3.07;100.00
21956;BME280;11142;49.930;8.606;2023-03-04T05:07:12;100758.34;;;3.16;100.00
21956;BME280;11142;49.930;8.606;2023-03-04T05:09:40;100761.41;;;2.94;100.00
21956;BME280;11142;49.930;8.606;2023-03-04T05:12:08;100760.84;;;2.80;100.00
21956;BME280;11142;49.930;8.606;2023-03-04T05:14:36;100759.84;;;2.88;100.00
21956;BME280;11142;49.930;8.606;2023-03-04T05:17:04;100750.88;;;3.06;100.00
21956;BME280;11142;49.930;8.606;2023-03-04T05:19:35;100754.09;;;3.15;100.00
21956;BME280;11142;49.930;8.606;2023-03-04T05:22:03;100748.81;;;3.21;100.00
21956;BME280;11142;49.930;8.606;2023-03-04T05:24:31;100753.88;;;3.26;100.00
21956;BME280;11142;49.930;8.606;2023-03-04T05:27:00;100750.38;;;3.29;100.00
21956;BME280;11142;49.930;8.606;2023-03-04T05:29:28;100746.13;;;3.28;100.00
21956;BME280;11142;49.930;8.606;2023-03-04T05:31:59;100747.31;;;3.13;100.00
21956;BME280;11142;49.930;8.606;2023-03-04T05:34:27;100754.19;;;3.11;100.00
21956;BME280;11142;49.930;8.606;2023-03-04T05:36:57;100747.09;;;3.22;100.00
21956;BME280;11142;49.930;8.606;2023-03-04T05:39:25;100749.59;;;3.27;100.00
21956;BME280;11142;49.930;8.606;2023-03-04T05:41:56;100752.00;;;3.33;100.00
21956;BME280;11142;49.930;8.606;2023-03-04T05:44:23;100749.47;;;3.31;100.00
21956;BME280;11142;49.930;8.606;2023-03-04T05:46:52;100751.09;;;3.35;100.00
21956;BME280;11142;49.930;8.606;2023-03-04T05:49:19;100753.94;;;3.23;100.00
21956;BME280;11142;49.930;8.606;2023-03-04T05:51:48;100750.31;;;3.32;100.00
21956;BME280;11142;49.930;8.606;2023-03-04T05:54:18;100753.03;;;3.24;100.00
21956;BME280;11142;49.930;8.606;2023-03-04T05:56:47;100756.22;;;3.34;100.00
21956;BME280;11142;49.930;8.606;2023-03-04T05:59:16;100752.75;;;3.36;100.00
21956;BME280;11142;49.930;8.606;2023-03-04T06:01:46;100754.03;;;3.18;100.00
21956;BME280;11142;49.930;8.606;2023-03-04T06:04:14;100758.84;;;3.32;100.00
21956;BME280;11142;49.930;8.606;2023-03-04T06:06:43;100759.34;;;3.48;100.00
21956;BME280;11142;49.930;8.606;2023-03-04T06:09:11;100759.06;;;3.58;100.00
21956;BME280;11142;49.930;8.606;2023-03-04T06:11:41;100761.78;;;3.52;100.00
21956;BME280;11142;49.930;8.606;2023-03-04T06:14:09;100765.16;;;3.54;100.00
21956;BME280;11142;49.930;8.606;2023-03-04T06:16:38;100764.00;;;3.67;100.00
21956;BME280;11142;49.930;8.606;2023-03-04T06:19:07;100770.47;;;3.82;100.00
21956;BME280;11142;49.930;8.606;2023-03-04T06:21:35;100760.00;;;3.90;100.00
21956;BME280;11142;49.930;8.606;2023-03-04T06:24:03;100771.91;;;3.92;100.00
21956;BME280;11142;49.930;8.606;2023-03-04T06:26:31;100770.56;;;3.78;100.00
21956;BME280;11142;49.930;8.606;2023-03-04T06:29:01;100772.25;;;3.79;100.00
21956;BME280;11142;49.930;8.606;2023-03-04T06:31:29;100779.88;;;3.82;100.00
21956;BME280;11142;49.930;8.606;2023-03-04T06:33:57;100781.03;;;3.70;100.00
21956;BME280;11142;49.930;8.606;2023-03-04T06:36:25;100783.28;;;3.84;100.00
21956;BME280;11142;49.930;8.606;2023-03-04T06:38:53;100795.47;;;3.74;100.00
21956;BME280;11142;49.930;8.606;2023-03-04T06:41:21;100796.91;;;3.86;100.00
21956;BME280;11142;49.930;8.606;2023-03-04T06:43:52;100795.72;;;3.63;100.00
21956;BME280;11142;49.930;8.606;2023-03-04T06:46:21;100808.19;;;3.79;100.00
21956;BME280;11142;49.930;8.606;2023-03-04T06:48:49;100806.84;;;3.98;100.00
21956;BME280;11142;49.930;8.606;2023-03-04T06:51:18;100803.66;;;4.22;100.00
21956;BME280;11142;49.930;8.606;2023-03-04T06:53:46;100804.84;;;4.43;100.00
21956;BME280;11142;49.930;8.606;2023-03-04T06:56:14;100809.19;;;4.41;100.00
21956;BME280;11142;49.930;8.606;2023-03-04T06:58:44;100808.19;;;4.45;100.00
21956;BME280;11142;49.930;8.606;2023-03-04T07:01:13;100802.50;;;4.66;100.00
21956;BME280;11142;49.930;8.606;2023-03-04T07:03:43;100804.88;;;4.72;100.00
21956;BME280;11142;49.930;8.606;2023-03-04T07:06:13;100805.06;;;4.66;100.00
21956;BME280;11142;49.930;8.606;2023-03-04T07:08:41;100807.22;;;4.49;100.00
21956;BME280;11142;49.930;8.606;2023-03-04T07:11:10;100812.59;;;4.07;100.00
21956;BME280;11142;49.930;8.606;2023-03-04T07:13:38;100820.22;;;4.12;100.00
21956;BME280;11142;49.930;8.606;2023-03-04T07:16:07;100823.00;;;4.35;100.00
21956;BME280;11142;49.930;8.606;2023-03-04T07:18:38;100819.31;;;4.76;100.00
21956;BME280;11142;49.930;8.606;2023-03-04T07:21:08;100827.88;;;5.07;100.00
21956;BME280;11142;49.930;8.606;2023-03-04T07:23:36;100824.28;;;5.13;100.00
21956;BME280;11142;49.930;8.606;2023-03-04T07:26:04;100821.88;;;5.07;100.00
21956;BME280;11142;49.930;8.606;2023-03-04T07:28:34;100823.34;;;5.15;100.00
21956;BME280;11142;49.930;8.606;2023-03-04T07:31:09;100822.38;;;5.47;100.00
21956;BME280;11142;49.930;8.606;2023-03-04T07:33:37;100829.59;;;5.62;100.00
21956;BME280;11142;49.930;8.606;2023-03-04T07:36:07;100827.38;;;5.78;100.00
21956;BME280;11142;49.930;8.606;2023-03-04T07:38:36;100824.44;;;5.90;100.00
21956;BME280;11142;49.930;8.606;2023-03-04T07:41:04;100833.38;;;6.06;100.00
21956;BME280;11142;49.930;8.606;2023-03-04T07:43:33;100836.31;;;5.96;100.00
21956;BME280;11142;49.930;8.606;2023-03-04T07:46:00;100837.22;;;5.93;100.00
21956;BME280;11142;49.930;8.606;2023-03-04T07:48:29;100837.72;;;6.04;100.00
21956;BME280;11142;49.930;8.606;2023-03-04T07:51:04;100833.13;;;6.14;100.00
21956;BME280;11142;49.930;8.606;2023-03-04T07:53:35;100843.75;;;6.29;100.00
21956;BME280;11142;49.930;8.606;2023-03-04T07:56:04;100847.19;;;6.55;100.00
21956;BME280;11142;49.930;8.606;2023-03-04T07:58:32;100848.53;;;6.65;100.00
21956;BME280;11142;49.930;8.606;2023-03-04T08:01:07;100847.03;;;6.59;100.00
21956;BME280;11142;49.930;8.606;2023-03-04T08:03:36;100849.41;;;6.40;100.00
21956;BME280;11142;49.930;8.606;2023-03-04T08:06:05;100850.72;;;6.27;100.00
21956;BME280;11142;49.930;8.606;2023-03-04T08:08:35;100834.28;;;6.30;100.00
21956;BME280;11142;49.930;8.606;2023-03-04T08:11:04;100837.66;;;6.32;100.00
21956;BME280;11142;49.930;8.606;2023-03-04T08:13:33;100842.59;;;6.38;100.00
21956;BME280;11142;49.930;8.606;2023-03-04T08:16:01;100848.69;;;6.60;100.00
21956;BME280;11142;49.930;8.606;2023-03-04T08:18:30;100846.06;;;6.62;100.00
21956;BME280;11142;49.930;8.606;2023-03-04T08:20:58;100844.78;;;6.73;100.00
21956;BME280;11142;49.930;8.606;2023-03-04T08:23:26;100844.41;;;7.07;100.00
21956;BME280;11142;49.930;8.606;2023-03-04T08:25:55;100852.88;;;7.34;100.00
21956;BME280;11142;49.930;8.606;2023-03-04T08:28:24;100851.78;;;7.39;96.77
21956;BME280;11142;49.930;8.606;2023-03-04T08:30:52;100853.47;;;7.19;97.87
21956;BME280;11142;49.930;8.606;2023-03-04T08:33:21;100863.38;;;7.06;99.21
21956;BME280;11142;49.930;8.606;2023-03-04T08:35:49;100855.97;;;7.20;99.01
21956;BME280;11142;49.930;8.606;2023-03-04T08:38:17;100862.34;;;7.33;99.36
21956;BME280;11142;49.930;8.606;2023-03-04T08:40:50;100860.72;;;7.54;97.00
21956;BME280;11142;49.930;8.606;2023-03-04T08:43:20;100860.38;;;7.83;95.57
21956;BME280;11142;49.930;8.606;2023-03-04T08:45:48;100861.41;;;8.01;93.39
21956;BME280;11142;49.930;8.606;2023-03-04T08:48:17;100867.22;;;8.06;90.70
21956;BME280;11142;49.930;8.606;2023-03-04T08:50:46;100863.75;;;8.07;91.29
21956;BME280;11142;49.930;8.606;2023-03-04T08:53:15;100867.25;;;8.26;90.01
21956;BME280;11142;49.930;8.606;2023-03-04T08:55:43;100863.81;;;8.47;88.69
21956;BME280;11142;49.930;8.606;2023-03-04T08:58:12;100868.72;;;8.74;86.55
21956;BME280;11142;49.930;8.606;2023-03-04T09:00:43;100872.34;;;9.08;85.35
21956;BME280;11142;49.930;8.606;2023-03-04T09:03:14;100869.41;;;9.16;80.63
21956;BME280;11142;49.930;8.606;2023-03-04T09:05:43;100872.34;;;9.27;81.16
21956;BME280;11142;49.930;8.606;2023-03-04T09:08:12;100868.34;;;9.39;80.27
21956;BME280;11142;49.930;8.606;2023-03-04T09:10:40;100866.28;;;9.28;78.51
21956;BME280;11142;49.930;8.606;2023-03-04T09:13:08;100864.38;;;9.32;80.07
21956;BME280;11142;49.930;8.606;2023-03-04T09:15:37;100868.63;;;9.51;79.87
21956;BME280;11142;49.930;8.606;2023-03-04T09:18:12;100870.31;;;9.52;78.53
21956;BME280;11142;49.930;8.606;2023-03-04T09:20:40;100868.63;;;9.70;78.24
21956;BME280;11142;49.930;8.606;2023-03-04T09:23:10;100861.31;;;9.78;76.14
21956;BME280;11142;49.930;8.606;2023-03-04T09:25:39;100859.16;;;10.05;75.28
21956;BME280;11142;49.930;8.606;2023-03-04T09:28:09;100862.03;;;9.99;73.08
21956;BME280;11142;49.930;8.606;2023-03-04T09:30:37;100859.34;;;10.19;73.86
21956;BME280;11142;49.930;8.606;2023-03-04T09:33:06;100863.31;;;10.26;72.77
21956;BME280;11142;49.930;8.606;2023-03-04T09:35:35;100855.06;;;10.35;71.15
21956;BME280;11142;49.930;8.606;2023-03-04T09:38:04;100859.16;;;10.56;71.25
21956;BME280;11142;49.930;8.606;2023-03-04T09:40:32;100856.63;;;10.72;68.50
21956;BME280;11142;49.930;8.606;2023-03-04T09:43:04;100863.88;;;10.65;64.93
21956;BME280;11142;49.930;8.606;2023-03-04T09:45:36;100859.00;;;10.77;62.27
21956;BME280;11142;49.930;8.606;2023-03-04T09:48:05;100865.28;;;10.88;61.76
21956;BME280;11142;49.930;8.606;2023-03-04T09:50:37;100863.19;;;11.12;63.98
21956;BME280;11142;49.930;8.606;2023-03-04T09:53:13;100856.59;;;11.38;64.19
21956;BME280;11142;49.930;8.606;2023-03-04T09:55:47;100861.13;;;11.50;63.87
21956;BME280;11142;49.930;8.606;2023-03-04T09:58:24;100860.94;;;11.53;61.60
21956;BME280;11142;49.930;8.606;2023-03-04T10:00:54;100853.22;;;11.20;61.97
21956;BME280;11142;49.930;8.606;2023-03-04T10:03:23;100856.78;;;11.02;62.89
21956;BME280;11142;49.930;8.606;2023-03-04T10:05:54;100860.06;;;11.05;62.01
21956;BME280;11142;49.930;8.606;2023-03-04T10:08:26;100856.25;;;11.44;62.84
21956;BME280;11142;49.930;8.606;2023-03-04T10:10:59;100852.09;;;11.73;59.17
21956;BME280;11142;49.930;8.606;2023-03-04T10:13:30;100853.25;;;12.12;59.24
21956;BME280;11142;49.930;8.606;2023-03-04T10:16:02;100847.38;;;12.39;55.29
21956;BME280;11142;49.930;8.606;2023-03-04T10:18:33;100849.56;;;12.74;57.51
21956;BME280;11142;49.930;8.606;2023-03-04T10:21:07;100849.09;;;12.96;55.49
21956;BME280;11142;49.930;8.606;2023-03-04T10:23:40;100848.06;;;12.85;50.61
21956;BME280;11142;49.930;8.606;2023-03-04T10:26:09;100843.25;;;11.91;53.41
21956;BME280;11142;49.930;8.606;2023-03-04T10:28:39;100847.94;;;11.53;55.32
21956;BME280;11142;49.930;8.606;2023-03-04T10:31:10;100854.16;;;11.19;55.60
21956;BME280;11142;49.930;8.606;2023-03-04T10:33:39;100851.50;;;9.85;59.65
21956;BME280;11142;49.930;8.606;2023-03-04T10:36:15;100848.13;;;8.10;68.92
21956;BME280;11142;49.930;8.606;2023-03-04T10:38:49;100844.47;;;7.94;74.28
21956;BME280;11142;49.930;8.606;2023-03-04T10:41:21;100843.50;;;8.38;75.03
21956;BME280;11142;49.930;8.606;2023-03-04T10:43:59;100843.47;;;6.86;84.56
21956;BME280;11142;49.930;8.606;2023-03-04T10:46:28;100837.22;;;7.82;81.66
21956;BME280;11142;49.930;8.606;2023-03-04T10:48:56;100838.13;;;7.37;81.82
21956;BME280;11142;49.930;8.606;2023-03-04T10:51:28;100832.66;;;8.09;77.99
21956;BME280;11142;49.930;8.606;2023-03-04T10:53:57;100831.91;;;8.27;79.17
21956;BME280;11142;49.930;8.606;2023-03-04T10:56:31;100828.41;;;9.44;77.98
21956;BME280;11142;49.930;8.606;2023-03-04T11:01:52;100829.56;;;10.60;67.54
21956;BME280;11142;49.930;8.606;2023-03-04T11:04:21;100819.66;;;10.84;65.47
21956;BME280;11142;49.930;8.606;2023-03-04T11:06:52;100821.50;;;10.49;60.86
21956;BME280;11142;49.930;8.606;2023-03-04T11:09:21;100822.66;;;9.38;65.90
21956;BME280;11142;49.930;8.606;2023-03-04T11:11:51;100816.34;;;9.96;67.87
21956;BME280;11142;49.930;8.606;2023-03-04T11:14:45;100810.50;;;10.10;62.36
21956;BME280;11142;49.930;8.606;2023-03-04T11:17:16;100815.81;;;8.20;73.01
21956;BME280;11142;49.930;8.606;2023-03-04T11:19:46;100803.53;;;8.66;76.36
21956;BME280;11142;49.930;8.606;2023-03-04T11:22:19;100805.75;;;7.72;75.40
21956;BME280;11142;49.930;8.606;2023-03-04T11:24:52;100801.81;;;7.84;81.68
21956;BME280;11142;49.930;8.606;2023-03-04T11:27:23;100798.81;;;8.55;79.75
21956;BME280;11142;49.930;8.606;2023-03-04T11:29:54;100791.66;;;8.80;73.93
21956;BME280;11142;49.930;8.606;2023-03-04T11:32:26;100795.88;;;8.63;78.95
21956;BME280;11142;49.930;8.606;2023-03-04T11:34:55;100795.16;;;9.17;77.21
21956;BME280;11142;49.930;8.606;2023-03-04T11:37:27;100792.56;;;9.88;74.69
21956;BME280;11142;49.930;8.606;2023-03-04T11:39:57;100795.41;;;10.35;69.00
21956;BME280;11142;49.930;8.606;2023-03-04T11:42:30;100787.47;;;10.21;67.55
21956;BME280;11142;49.930;8.606;2023-03-04T11:45:01;100794.34;;;10.22;68.70
21956;BME280;11142;49.930;8.606;2023-03-04T11:47:36;100786.03;;;10.33;68.37
21956;BME280;11142;49.930;8.606;2023-03-04T11:50:14;100783.97;;;10.05;66.47
21956;BME280;11142;49.930;8.606;2023-03-04T11:52:50;100785.81;;;10.20;68.05
21956;BME280;11142;49.930;8.606;2023-03-04T11:55:28;100783.56;;;10.12;67.04
21956;BME280;11142;49.930;8.606;2023-03-04T11:58:00;100781.38;;;10.05;68.96
21956;BME280;11142;49.930;8.606;2023-03-04T12:00:32;100771.44;;;10.13;66.94
21956;BME280;11142;49.930;8.606;2023-03-04T12:03:10;100770.50;;;10.48;68.02
21956;BME280;11142;49.930;8.606;2023-03-04T12:05:45;100779.75;;;10.70;65.01
21956;BME280;11142;49.930;8.606;2023-03-04T12:08:23;100771.28;;;10.66;64.79
21956;BME280;11142;49.930;8.606;2023-03-04T12:10:55;100761.91;;;10.31;66.65
21956;BME280;11142;49.930;8.606;2023-03-04T12:13:49;100766.59;;;10.24;65.24
21956;BME280;11142;49.930;8.606;2023-03-04T12:16:23;100759.72;;;9.89;65.41
21956;BME280;11142;49.930;8.606;2023-03-04T12:19:04;100759.59;;;9.56;68.21
21956;BME280;11142;49.930;8.606;2023-03-04T12:24:28;100756.28;;;8.22;75.16
21956;BME280;11142;49.930;8.606;2023-03-04T12:27:00;100753.31;;;7.70;81.62
21956;BME280;11142;49.930;8.606;2023-03-04T12:29:32;100753.41;;;8.29;82.14
21956;BME280;11142;49.930;8.606;2023-03-04T12:32:07;100746.06;;;7.78;81.20
21956;BME280;11142;49.930;8.606;2023-03-04T12:34:43;100742.72;;;7.34;85.85
21956;BME280;11142;49.930;8.606;2023-03-04T12:37:19;100743.78;;;8.33;82.80
21956;BME280;11142;49.930;8.606;2023-03-04T12:39:53;100753.59;;;8.05;79.69
21956;BME280;11142;49.930;8.606;2023-03-04T12:42:25;100744.13;;;8.24;82.07
21956;BME280;11142;49.930;8.606;2023-03-04T12:44:55;100730.72;;;8.92;80.04
21956;BME280;11142;49.930;8.606;2023-03-04T12:47:28;100732.66;;;9.24;73.47
21956;BME280;11142;49.930;8.606;2023-03-04T12:50:03;100736.22;;;9.57;74.17
21956;BME280;11142;49.930;8.606;2023-03-04T12:52:38;100726.75;;;10.08;68.73
21956;BME280;11142;49.930;8.606;2023-03-04T12:55:10;100724.38;;;9.52;69.21
21956;BME280;11142;49.930;8.606;2023-03-04T12:57:39;100724.56;;;8.76;72.68
21956;BME280;11142;49.930;8.606;2023-03-04T13:00:13;100714.22;;;9.30;75.70
21956;BME280;11142;49.930;8.606;2023-03-04T13:03:03;100721.41;;;9.77;71.09
21956;BME280;11142;49.930;8.606;2023-03-04T13:05:40;100718.41;;;9.86;70.21
21956;BME280;11142;49.930;8.606;2023-03-04T13:08:14;100714.09;;;10.19;69.11
21956;BME280;11142;49.930;8.606;2023-03-04T13:10:46;100716.00;;;10.48;67.57